Fort Simpson Airport


Codes: CYFS/YFS
Name: Fort Simpson Airport
City: Fort Simpson
Country: Canada
Elevation: 555 ft.
Wikipedia:

Photos at Fort Simpson Airport


   Photos courtesy of SpottingLog. You can add your own sightings and photos by signing up for a free trial today.



No photos found.

Weather at Fort Simpson Airport


Time (UTC)DescriptionTempratureWindCloud coverageVisibilityPressureHumidity
21-Jun-2024 12:00Overcast Clouds12°C4 mph, E94%10000m1016hPa94%
21-Jun-2024 15:00Overcast Clouds13°C4 mph, E94%10000m1015hPa86%
21-Jun-2024 18:00Overcast Clouds18°C4 mph, SE95%10000m1013hPa58%
21-Jun-2024 21:00Overcast Clouds24°C7 mph, SE98%10000m1010hPa33%
22-Jun-2024 00:00Overcast Clouds25°C4 mph, E99%10000m1008hPa33%
22-Jun-2024 03:00Overcast Clouds23°C4 mph, E93%10000m1007hPa41%
22-Jun-2024 06:00Light Rain15°C2 mph, S96%10000m1007hPa73%
22-Jun-2024 09:00Light Rain14°C2 mph, NE100%10000m1008hPa83%
22-Jun-2024 12:00Overcast Clouds13°C2 mph, N100%10000m1008hPa78%
22-Jun-2024 15:00Overcast Clouds16°C4 mph, N100%10000m1007hPa58%
22-Jun-2024 18:00Overcast Clouds20°C4 mph, NW100%10000m1007hPa44%
22-Jun-2024 21:00Overcast Clouds22°C9 mph, N93%10000m1007hPa42%
23-Jun-2024 00:00Overcast Clouds20°C11 mph, N96%10000m1007hPa50%
23-Jun-2024 03:00Overcast Clouds17°C9 mph, N100%10000m1007hPa61%
23-Jun-2024 06:00Overcast Clouds13°C11 mph, N100%10000m1008hPa73%
23-Jun-2024 09:00Overcast Clouds13°C9 mph, N100%10000m1009hPa69%
23-Jun-2024 12:00Overcast Clouds13°C7 mph, N100%10000m1008hPa61%
23-Jun-2024 15:00Light Rain13°C7 mph, N100%10000m1009hPa70%
23-Jun-2024 18:00Light Rain11°C7 mph, NW100%10000m1010hPa85%
23-Jun-2024 21:00Light Rain11°C7 mph, NW100%10000m1010hPa90%
24-Jun-2024 00:00Light Rain13°C7 mph, W100%10000m1009hPa83%
24-Jun-2024 03:00Light Rain12°C9 mph, NW100%10000m1009hPa86%
24-Jun-2024 06:00Overcast Clouds13°C11 mph, NW100%10000m1009hPa79%
24-Jun-2024 09:00Overcast Clouds12°C7 mph, NW100%10000m1010hPa65%
24-Jun-2024 12:00Overcast Clouds11°C7 mph, NW100%10000m1011hPa59%
24-Jun-2024 15:00Overcast Clouds12°C9 mph, NW100%10000m1012hPa48%
24-Jun-2024 18:00Overcast Clouds16°C9 mph, N100%10000m1012hPa32%
24-Jun-2024 21:00Overcast Clouds19°C9 mph, N99%10000m1012hPa25%
25-Jun-2024 00:00Broken Clouds20°C9 mph, N72%10000m1012hPa25%
25-Jun-2024 03:00Clear Sky19°C4 mph, N2%10000m1012hPa32%
25-Jun-2024 06:00Clear Sky12°C2 mph, N1%10000m1013hPa49%
25-Jun-2024 09:00Clear Sky9°C4 mph, NW0%10000m1014hPa61%
25-Jun-2024 12:00Clear Sky9°C4 mph, NW0%10000m1015hPa56%
25-Jun-2024 15:00Clear Sky16°C4 mph, NW2%10000m1014hPa34%
25-Jun-2024 18:00Clear Sky21°C4 mph, NW9%10000m1013hPa24%
25-Jun-2024 21:00Clear Sky24°C4 mph, NW0%10000m1012hPa18%
26-Jun-2024 00:00Clear Sky24°C7 mph, NW2%10000m1011hPa18%
26-Jun-2024 03:00Clear Sky22°C7 mph, N5%10000m1011hPa27%
26-Jun-2024 06:00Clear Sky13°C4 mph, NE7%10000m1012hPa52%
26-Jun-2024 09:00Scattered Clouds10°C4 mph, E29%10000m1012hPa60%